Terminal Aerodrome Forecast
Issued by NWS

Home | Current Version | Previous Version | Text Only | Print | Product List | Glossary On
Versions: 1 2 3 4 5 6 7 8 9 10 11 12 13 14 15 16 17 18
000
FTUS44 KLIX 262338
TAFMCB
TAF
KMCB 262338Z 2700/2724 17003KT P6SM FEW120
     FM271100 00000KT P6SM SCT025
     FM271500 16004KT P6SM SCT040
      TEMPO 2718/2722 VRB30KT 2SM TSRA BKN035CB=

USA.gov is the U.S. government's official web portal to all federal, state and local government web resources and services.